Time;durP1;ratioP1;P1;durP2;ratioP2;P2;SDS_P1;SDS_P2;PMS_P1;PMS_P2;Temp;Humidity;BMP_temperature;BMP_pressure;BME280_temperature;BME280_humidity;BME280_pressure;Samples;Min_cycle;Max_cycle;Signal;HPM_P1;HPM_P2
2022/12/12 00:02:20;;;;;;;3.58;2.13;;;-4.80;99.90;;;;;;4951713;28;20079;-70
2022/12/12 00:04:48;;;;;;;3.50;2.40;;;-4.80;99.90;;;;;;4952721;28;20074;-69
2022/12/12 00:07:15;;;;;;;3.92;2.65;;;-4.80;99.90;;;;;;4953029;29;20048;-71
2022/12/12 00:09:42;;;;;;;6.95;2.67;;;-4.80;99.90;;;;;;4951017;29;20051;-69
2022/12/12 00:12:10;;;;;;;3.50;2.28;;;-4.90;99.90;;;;;;4953127;29;20138;-69
2022/12/12 00:14:38;;;;;;;2.80;2.35;;;-4.90;99.90;;;;;;4936180;29;20058;-69
2022/12/12 00:17:06;;;;;;;2.72;1.77;;;-4.90;99.90;;;;;;4955572;29;20435;-70
2022/12/12 00:19:34;;;;;;;3.70;2.17;;;-4.90;99.90;;;;;;4937567;29;20516;-71
2022/12/12 00:22:04;;;;;;;2.67;2.38;;;-4.90;99.90;;;;;;4955097;28;20582;-71
2022/12/12 00:24:32;;;;;;;2.88;2.05;;;-4.90;99.90;;;;;;4956393;29;20043;-75
2022/12/12 00:26:59;;;;;;;3.28;2.55;;;-4.90;99.90;;;;;;4949027;29;20385;-76
2022/12/12 00:29:27;;;;;;;3.22;2.03;;;-4.90;99.90;;;;;;4951081;29;20055;-76
2022/12/12 00:31:54;;;;;;;3.33;2.30;;;-4.90;99.90;;;;;;4923410;29;20051;-76
2022/12/12 00:34:23;;;;;;;3.00;2.20;;;-4.90;99.90;;;;;;4956058;29;20043;-76
2022/12/12 00:36:51;;;;;;;3.40;2.40;;;-4.90;99.90;;;;;;4937858;29;20059;-76
2022/12/12 00:39:19;;;;;;;4.30;2.70;;;-4.90;99.90;;;;;;4956493;29;20047;-76
2022/12/12 00:41:47;;;;;;;2.20;1.90;;;-4.90;99.90;;;;;;4956041;29;20050;-76
2022/12/12 00:44:15;;;;;;;3.17;2.25;;;-4.90;99.90;;;;;;4954869;29;20500;-75
2022/12/12 00:46:43;;;;;;;4.90;2.42;;;-4.90;99.90;;;;;;4937365;29;20516;-76
2022/12/12 00:49:11;;;;;;;2.58;2.38;;;-4.90;99.90;;;;;;4956100;29;20396;-75
2022/12/12 00:51:43;;;;;;;2.42;1.90;;;-4.90;99.90;;;;;;4955985;29;20114;-77
2022/12/12 00:54:10;;;;;;;2.50;2.28;;;-4.90;99.90;;;;;;4956031;29;20051;-76
2022/12/12 00:56:39;;;;;;;3.05;2.25;;;-4.90;99.90;;;;;;4937107;29;20055;-77
2022/12/12 00:59:07;;;;;;;3.42;2.22;;;-4.90;99.90;;;;;;4955999;29;20058;-75
2022/12/12 01:01:37;;;;;;;4.00;2.78;;;-4.90;99.90;;;;;;4955975;29;20504;-76
2022/12/12 01:04:06;;;;;;;3.15;2.28;;;-4.80;99.90;;;;;;4953405;29;20642;-75
2022/12/12 01:06:35;;;;;;;5.30;2.80;;;-4.90;99.90;;;;;;4954488;29;20043;-75
2022/12/12 01:09:05;;;;;;;4.50;2.90;;;-4.90;99.90;;;;;;4955746;29;20155;-76
2022/12/12 01:11:32;;;;;;;3.25;2.80;;;-4.80;99.90;;;;;;4955964;28;20063;-77
2022/12/12 01:13:59;;;;;;;9.95;2.15;;;-4.80;99.90;;;;;;4952814;28;20062;-77
2022/12/12 01:16:27;;;;;;;3.78;2.40;;;-4.80;99.90;;;;;;4955325;29;20129;-76
2022/12/12 01:18:55;;;;;;;4.25;2.80;;;-4.80;99.90;;;;;;4938398;29;20043;-75
2022/12/12 01:21:22;;;;;;;5.10;2.55;;;-4.70;99.90;;;;;;4955746;29;20043;-75
2022/12/12 01:23:50;;;;;;;2.80;1.90;;;-4.60;99.90;;;;;;4952819;29;20133;-76
2022/12/12 01:26:22;;;;;;;3.58;2.28;;;-4.60;99.90;;;;;;4951951;28;20055;-76
2022/12/12 01:28:50;;;;;;;3.93;2.40;;;-4.60;99.90;;;;;;4936575;29;20416;-76
2022/12/12 01:31:18;;;;;;;5.57;3.58;;;-4.60;99.90;;;;;;4938258;29;20040;-70
2022/12/12 01:33:46;;;;;;;5.13;2.33;;;-4.60;99.90;;;;;;4955243;29;20055;-69
2022/12/12 01:36:16;;;;;;;4.97;2.70;;;-4.60;99.90;;;;;;4955324;29;20463;-69
2022/12/12 01:38:47;;;;;;;4.25;2.83;;;-4.60;99.90;;;;;;4938027;29;20444;-69
2022/12/12 01:41:15;;;;;;;3.83;2.35;;;-4.60;99.90;;;;;;4953731;29;20099;-71
2022/12/12 01:43:44;;;;;;;3.35;2.10;;;-4.50;99.90;;;;;;4937761;29;20051;-70
2022/12/12 01:46:41;;;;;;;2.92;2.30;;;-4.50;99.90;;;;;;4937750;29;20126;-70
2022/12/12 01:49:21;;;;;;;3.70;2.25;;;-4.50;99.90;;;;;;4953220;29;20050;-70
2022/12/12 01:51:52;;;;;;;3.13;2.25;;;-4.50;99.90;;;;;;4955080;29;20130;-70
2022/12/12 01:54:24;;;;;;;2.67;1.67;;;-4.50;99.90;;;;;;4954765;29;20055;-69
2022/12/12 01:56:55;;;;;;;3.03;2.33;;;-4.50;99.90;;;;;;4955159;29;20476;-69
2022/12/12 01:59:26;;;;;;;5.22;2.60;;;-4.50;99.90;;;;;;4953378;29;20412;-70
2022/12/12 02:01:55;;;;;;;4.07;2.20;;;-4.50;99.90;;;;;;4937409;29;20488;-71
2022/12/12 02:04:24;;;;;;;5.78;2.90;;;-4.40;99.90;;;;;;4954549;29;20147;-69
2022/12/12 02:06:52;;;;;;;6.38;2.90;;;-4.40;99.90;;;;;;4954826;29;20510;-69
2022/12/12 02:09:21;;;;;;;6.45;3.30;;;-4.40;99.90;;;;;;4953450;28;20082;-69
2022/12/12 02:11:51;;;;;;;4.75;2.90;;;-4.40;99.90;;;;;;4954443;29;20125;-69
2022/12/12 02:14:26;;;;;;;5.32;2.90;;;-4.40;99.90;;;;;;4954770;29;20142;-75
2022/12/12 02:17:15;;;;;;;4.57;2.90;;;-4.40;99.90;;;;;;4935646;29;20401;-75
2022/12/12 02:20:30;;;;;;;4.57;2.83;;;-4.40;99.90;;;;;;4954769;29;20055;-76
2022/12/12 02:23:56;;;;;;;3.13;2.47;;;-4.30;99.90;;;;;;4937144;29;20217;-75
2022/12/12 02:27:09;;;;;;;6.57;3.10;;;-4.30;99.90;;;;;;4901392;29;20044;-75
2022/12/12 02:30:13;;;;;;;3.33;2.58;;;-4.30;99.90;;;;;;4932917;29;20059;-74
2022/12/12 02:33:18;;;;;;;5.45;2.78;;;-4.20;99.90;;;;;;4935588;29;20167;-77
2022/12/12 02:36:09;;;;;;;3.22;2.42;;;-4.20;99.90;;;;;;4922973;29;20146;-76
2022/12/12 02:38:50;;;;;;;4.10;2.90;;;-4.20;99.90;;;;;;4937332;29;20216;-76
2022/12/12 02:41:28;;;;;;;5.28;2.75;;;-4.20;99.90;;;;;;4955723;29;20051;-76
2022/12/12 02:44:11;;;;;;;5.95;3.00;;;-4.20;99.90;;;;;;4952662;29;20051;-76
2022/12/12 02:46:45;;;;;;;4.63;3.20;;;-4.10;99.90;;;;;;4953867;29;20075;-76
2022/12/12 02:49:18;;;;;;;3.88;2.88;;;-4.20;99.90;;;;;;4936679;29;20047;-76
2022/12/12 02:51:49;;;;;;;5.10;3.25;;;-4.20;99.90;;;;;;4954036;29;20575;-76
2022/12/12 02:54:22;;;;;;;6.47;3.17;;;-4.10;99.90;;;;;;4950906;29;20451;-76
2022/12/12 02:56:54;;;;;;;6.47;3.25;;;-4.10;99.90;;;;;;4915625;29;20066;-76
2022/12/12 02:59:30;;;;;;;5.75;3.42;;;-4.10;99.90;;;;;;4915818;29;20051;-76
2022/12/12 03:09:07;;;;;;;5.50;3.55;;;-4.10;99.90;;;;;;4952318;29;20063;-76
2022/12/12 03:11:47;;;;;;;14.73;3.88;;;-4.10;99.90;;;;;;4934785;29;20138;-78
2022/12/12 03:14:25;;;;;;;5.28;3.90;;;-4.10;99.90;;;;;;4953362;29;20051;-75
2022/12/12 03:17:02;;;;;;;7.00;4.07;;;-4.20;99.90;;;;;;4953918;29;20314;-76
2022/12/12 03:19:36;;;;;;;8.00;4.18;;;-4.20;99.90;;;;;;4936198;29;20098;-75
2022/12/12 03:22:13;;;;;;;9.80;3.28;;;-4.20;99.90;;;;;;4926503;29;20051;-77
2022/12/12 03:24:48;;;;;;;12.82;3.75;;;-4.20;99.90;;;;;;4929765;29;20067;-77
2022/12/12 03:27:22;;;;;;;7.80;4.07;;;-4.20;99.90;;;;;;4924924;29;20047;-75
2022/12/12 03:29:56;;;;;;;9.32;4.22;;;-4.20;99.90;;;;;;4942820;29;20456;-76
2022/12/12 03:32:31;;;;;;;17.58;8.15;;;-4.20;99.90;;;;;;4935956;29;20055;-78
2022/12/12 03:35:04;;;;;;;8.27;5.20;;;-4.20;99.90;;;;;;4952937;29;20059;-75
2022/12/12 03:37:37;;;;;;;8.77;4.30;;;-4.20;99.90;;;;;;4953033;29;20546;-77
2022/12/12 03:40:10;;;;;;;10.68;3.72;;;-4.20;99.90;;;;;;4952077;29;20078;-75
2022/12/12 03:42:43;;;;;;;8.98;3.92;;;-4.30;99.90;;;;;;4952969;29;20060;-77
2022/12/12 03:45:16;;;;;;;15.35;4.15;;;-4.30;99.90;;;;;;4935595;29;20047;-76
2022/12/12 03:47:53;;;;;;;10.13;5.40;;;-4.40;99.90;;;;;;4934328;29;20051;-77
2022/12/12 03:50:22;;;;;;;9.98;5.10;;;-4.40;99.90;;;;;;4934903;29;20142;-77
2022/12/12 03:52:57;;;;;;;8.70;4.60;;;-4.40;99.90;;;;;;4952711;29;20053;-73
2022/12/12 03:55:29;;;;;;;11.00;5.65;;;-4.40;99.90;;;;;;4952878;29;20051;-76
2022/12/12 03:58:02;;;;;;;7.10;4.80;;;-4.30;99.90;;;;;;4951332;29;20055;-76
2022/12/12 04:00:36;;;;;;;9.85;4.07;;;-4.40;99.90;;;;;;4952576;29;20058;-76
2022/12/12 04:03:10;;;;;;;6.07;4.20;;;-4.40;99.90;;;;;;4952677;29;20055;-78
2022/12/12 04:06:25;;;;;;;9.70;5.10;;;-4.40;99.90;;;;;;4951540;29;20063;-76
2022/12/12 04:08:35;;;;;;;9.55;4.25;;;-4.40;99.90;;;;;;4952829;29;20062;-77
2022/12/12 04:14:13;;;;;;;10.13;4.38;;;-4.40;99.90;;;;;;4933358;29;20257;-70
2022/12/12 04:16:45;;;;;;;6.93;4.05;;;-4.50;99.90;;;;;;4951719;28;20139;-69
2022/12/12 04:23:13;;;;;;;11.57;3.90;;;-4.50;99.90;;;;;;4932077;29;20058;-70
2022/12/12 04:25:05;;;;;;;7.25;3.88;;;-4.50;99.90;;;;;;4948672;29;20059;-71
2022/12/12 04:27:39;;;;;;;11.82;4.30;;;-4.40;99.90;;;;;;4940218;29;20065;-70
2022/12/12 04:30:10;;;;;;;8.32;4.07;;;-4.40;99.90;;;;;;4933624;29;20056;-76
2022/12/12 04:32:43;;;;;;;7.85;4.32;;;-4.40;99.90;;;;;;4936337;29;20083;-76
2022/12/12 04:35:14;;;;;;;;;;;-4.40;99.90;;;;;;4952994;29;20055;-74
2022/12/12 04:37:48;;;;;;;5.40;3.40;;;-4.40;99.90;;;;;;4951554;29;19973;-69
2022/12/12 04:40:22;;;;;;;4.22;3.13;;;-4.40;99.90;;;;;;4952324;29;20053;-70
2022/12/12 04:43:02;;;;;;;6.35;3.75;;;-4.40;99.90;;;;;;4928869;29;20051;-75
2022/12/12 04:45:43;;;;;;;8.02;3.80;;;-4.40;99.90;;;;;;4898944;29;20047;-70
2022/12/12 04:48:19;;;;;;;8.18;4.18;;;-4.40;99.90;;;;;;4923562;29;20463;-70
2022/12/12 04:50:58;;;;;;;5.95;3.22;;;-4.40;99.90;;;;;;4938855;28;20059;-77
2022/12/12 04:53:33;;;;;;;10.65;3.50;;;-4.40;99.90;;;;;;4913819;29;20051;-70
2022/12/12 04:56:09;;;;;;;7.80;4.38;;;-4.40;99.90;;;;;;4926461;29;20051;-76
2022/12/12 04:58:38;;;;;;;8.00;2.85;;;-4.40;99.90;;;;;;4921029;29;20055;-76
2022/12/12 05:01:10;;;;;;;6.88;3.50;;;-4.40;99.90;;;;;;4927994;29;20047;-71
2022/12/12 05:03:47;;;;;;;8.90;3.80;;;-4.40;99.90;;;;;;4933692;29;20434;-75
2022/12/12 05:06:20;;;;;;;11.25;4.05;;;-4.40;99.90;;;;;;4928789;29;20071;-78
2022/12/12 05:08:50;;;;;;;6.05;3.55;;;-4.40;99.90;;;;;;4936418;29;20054;-74
2022/12/12 05:11:20;;;;;;;7.90;2.97;;;-4.40;99.90;;;;;;4950173;29;20066;-74
2022/12/12 05:13:50;;;;;;;5.00;3.22;;;-4.40;99.90;;;;;;4938155;29;20192;-74
2022/12/12 05:16:22;;;;;;;6.07;3.33;;;-4.40;99.90;;;;;;4955090;28;20059;-68
2022/12/12 05:18:49;;;;;;;6.88;2.83;;;-4.40;99.90;;;;;;4954052;29;20047;-70
2022/12/12 05:21:17;;;;;;;5.63;3.38;;;-4.40;99.90;;;;;;4952196;29;20126;-69
2022/12/12 05:23:45;;;;;;;5.38;3.05;;;-4.40;99.90;;;;;;4953369;29;20053;-74
2022/12/12 05:26:20;;;;;;;4.95;2.90;;;-4.30;99.90;;;;;;4950622;29;20062;-75
2022/12/12 05:28:48;;;;;;;5.55;3.17;;;-4.30;99.90;;;;;;4919382;29;20106;-74
2022/12/12 05:31:15;;;;;;;3.53;2.30;;;-4.30;99.90;;;;;;4953988;29;20178;-73
2022/12/12 05:33:43;;;;;;;9.80;3.10;;;-4.40;99.90;;;;;;4932004;29;20274;-73
2022/12/12 05:36:11;;;;;;;5.05;2.50;;;-4.40;99.90;;;;;;4928975;29;20082;-73
2022/12/12 05:38:39;;;;;;;5.60;3.15;;;-4.40;99.90;;;;;;4938097;29;20419;-76
2022/12/12 05:41:07;;;;;;;6.22;2.80;;;-4.30;99.90;;;;;;4936193;29;20052;-74
2022/12/12 05:43:36;;;;;;;4.75;2.65;;;-4.30;99.90;;;;;;4923222;29;20161;-74
2022/12/12 05:46:05;;;;;;;4.80;3.05;;;-4.30;99.90;;;;;;4923876;29;20062;-75
2022/12/12 05:48:33;;;;;;;8.60;3.75;;;-4.30;99.90;;;;;;4941376;29;20514;-68
2022/12/12 05:51:01;;;;;;;4.38;2.85;;;-4.30;99.90;;;;;;4935900;29;20051;-75
2022/12/12 05:53:29;;;;;;;6.05;2.20;;;-4.30;99.90;;;;;;4934771;29;20453;-75
2022/12/12 05:55:57;;;;;;;7.03;3.40;;;-4.30;99.90;;;;;;4935840;29;20451;-74
2022/12/12 05:58:24;;;;;;;5.32;1.73;;;-4.30;99.90;;;;;;4953788;29;20138;-75
2022/12/12 06:00:53;;;;;;;3.80;2.38;;;-4.30;99.90;;;;;;4953612;29;20476;-74
2022/12/12 06:03:21;;;;;;;5.20;2.30;;;-4.30;99.90;;;;;;4937371;29;20055;-75
2022/12/12 06:05:48;;;;;;;6.45;2.83;;;-4.30;99.90;;;;;;4953300;29;20063;-76
2022/12/12 06:08:16;;;;;;;5.05;2.40;;;-4.30;99.90;;;;;;4954472;29;20043;-74
2022/12/12 06:10:44;;;;;;;3.08;2.40;;;-4.30;99.90;;;;;;4954726;29;20050;-75
2022/12/12 06:13:12;;;;;;;6.88;3.28;;;-4.30;99.90;;;;;;4953989;28;20134;-74
2022/12/12 06:15:40;;;;;;;7.07;2.75;;;-4.20;99.90;;;;;;4920538;29;20451;-75
2022/12/12 06:18:11;;;;;;;9.35;2.80;;;-4.20;99.90;;;;;;4954927;28;20154;-74
2022/12/12 06:20:39;;;;;;;7.70;3.00;;;-4.30;99.90;;;;;;4955141;29;20077;-75
2022/12/12 06:23:08;;;;;;;4.07;2.60;;;-4.30;99.90;;;;;;4953084;28;20044;-75
2022/12/12 06:25:36;;;;;;;5.60;3.25;;;-4.20;99.90;;;;;;4954822;29;20066;-74
2022/12/12 06:28:04;;;;;;;5.75;2.40;;;-4.20;99.90;;;;;;4928162;29;20044;-76
2022/12/12 06:30:33;;;;;;;2.92;2.30;;;-4.20;99.90;;;;;;4949846;29;20592;-75
2022/12/12 06:33:07;;;;;;;6.30;2.08;;;-4.20;99.90;;;;;;4953106;29;20058;-69
2022/12/12 06:35:38;;;;;;;4.75;2.35;;;-4.10;99.90;;;;;;4927151;29;20147;-69
2022/12/12 06:38:11;;;;;;;3.20;2.13;;;-4.10;99.90;;;;;;4915980;29;20059;-74
2022/12/12 06:40:41;;;;;;;4.43;2.85;;;-4.10;99.90;;;;;;4931237;29;20056;-68
2022/12/12 06:43:12;;;;;;;3.45;2.30;;;-4.00;99.90;;;;;;4934503;29;20055;-69
2022/12/12 06:45:40;;;;;;;3.58;2.60;;;-4.00;99.90;;;;;;4945407;29;20043;-69
2022/12/12 06:48:08;;;;;;;4.82;2.67;;;-4.00;99.90;;;;;;4944078;29;20507;-70
2022/12/12 06:50:39;;;;;;;4.53;2.13;;;-4.00;99.90;;;;;;4921966;29;20051;-69
2022/12/12 06:53:08;;;;;;;3.55;2.58;;;-4.00;99.90;;;;;;4943988;29;20146;-70
2022/12/12 06:55:41;;;;;;;3.25;2.60;;;-3.90;99.90;;;;;;4932987;29;20044;-69
2022/12/12 06:58:09;;;;;;;3.85;2.47;;;-4.00;99.90;;;;;;4910576;29;20551;-70
2022/12/12 07:00:37;;;;;;;5.53;2.65;;;-4.00;99.90;;;;;;4931987;29;20050;-69
2022/12/12 07:03:06;;;;;;;6.20;2.70;;;-3.90;99.90;;;;;;4917620;29;20051;-71
2022/12/12 07:05:35;;;;;;;7.63;2.38;;;-3.90;99.90;;;;;;4929345;29;20054;-68
2022/12/12 07:08:19;;;;;;;3.78;2.50;;;-3.80;99.90;;;;;;4936606;29;20082;-71
2022/12/12 07:11:04;;;;;;;3.35;2.47;;;-3.80;99.90;;;;;;4943129;29;20055;-69
2022/12/12 07:13:33;;;;;;;;;;;-3.80;99.90;;;;;;4933497;29;20054;-70
2022/12/12 07:16:02;;;;;;;2.63;1.70;;;-3.80;99.90;;;;;;4917163;29;20162;-69
2022/12/12 07:18:29;;;;;;;2.85;2.22;;;-3.80;99.90;;;;;;4934503;29;20102;-69
2022/12/12 07:20:59;;;;;;;4.13;2.42;;;-3.80;99.90;;;;;;4934449;29;20236;-70
2022/12/12 07:23:29;;;;;;;4.72;2.90;;;-3.90;99.90;;;;;;4916847;29;20516;-70
2022/12/12 07:26:16;;;;;;;5.63;2.83;;;-3.90;99.90;;;;;;4934772;29;20074;-75
2022/12/12 07:29:20;;;;;;;3.92;2.28;;;-3.80;99.90;;;;;;4919726;29;20047;-74
2022/12/12 07:31:54;;;;;;;17.08;3.97;;;-3.80;99.90;;;;;;4899003;29;20051;-74
2022/12/12 07:34:22;;;;;;;9.75;3.22;;;-3.80;99.90;;;;;;4907178;29;20043;-74
2022/12/12 07:36:59;;;;;;;3.53;2.63;;;-3.80;99.90;;;;;;4934046;29;20059;-74
2022/12/12 07:39:29;;;;;;;5.90;2.97;;;-3.80;99.90;;;;;;4934337;29;20098;-76
2022/12/12 07:41:57;;;;;;;6.70;3.17;;;-3.80;99.90;;;;;;4934175;29;20531;-69
2022/12/12 07:44:30;;;;;;;2.95;2.13;;;-3.80;99.90;;;;;;4917145;29;20563;-74
2022/12/12 07:47:00;;;;;;;2.80;2.22;;;-3.70;99.90;;;;;;4933215;29;20059;-75
2022/12/12 07:49:29;;;;;;;5.28;3.05;;;-3.70;99.90;;;;;;4934237;29;20051;-74
2022/12/12 07:51:58;;;;;;;3.60;2.00;;;-3.70;99.90;;;;;;4934574;29;20508;-76
2022/12/12 07:54:25;;;;;;;4.03;2.90;;;-3.70;99.90;;;;;;4934578;29;20063;-74
2022/12/12 07:56:53;;;;;;;3.42;2.30;;;-3.70;99.90;;;;;;4934609;29;20142;-75
2022/12/12 07:59:22;;;;;;;3.13;2.22;;;-3.70;99.90;;;;;;4934485;29;20603;-73
2022/12/12 08:01:51;;;;;;;8.93;3.25;;;-3.70;99.90;;;;;;4939332;29;20055;-69
2022/12/12 08:04:19;;;;;;;5.05;3.08;;;-3.70;99.90;;;;;;4915000;29;20083;-74
2022/12/12 08:06:49;;;;;;;6.03;3.35;;;-3.60;99.90;;;;;;4942745;29;20102;-74
2022/12/12 08:09:20;;;;;;;6.57;2.75;;;-3.60;99.90;;;;;;4917322;29;20067;-74
2022/12/12 08:11:48;;;;;;;4.50;2.92;;;-3.60;99.90;;;;;;4928804;29;20044;-76
2022/12/12 08:14:17;;;;;;;5.93;3.20;;;-3.60;99.90;;;;;;4915506;29;20070;-74
2022/12/12 08:16:45;;;;;;;7.28;3.33;;;-3.60;99.90;;;;;;4927378;29;20063;-69
2022/12/12 08:19:13;;;;;;;5.70;3.20;;;-3.60;99.90;;;;;;4933732;29;20086;-70
2022/12/12 08:21:43;;;;;;;11.13;3.13;;;-3.60;99.90;;;;;;4933618;29;20060;-70
2022/12/12 08:24:13;;;;;;;6.40;3.40;;;-3.60;99.90;;;;;;4935238;29;20071;-76
2022/12/12 08:26:42;;;;;;;5.97;3.70;;;-3.50;99.90;;;;;;4915804;29;20052;-75
2022/12/12 08:29:17;;;;;;;4.85;3.08;;;-3.60;99.90;;;;;;4903530;29;20421;-74
2022/12/12 08:31:45;;;;;;;7.45;3.85;;;-3.50;99.90;;;;;;4916489;29;20051;-75
2022/12/12 08:34:13;;;;;;;6.65;3.05;;;-3.50;99.90;;;;;;4915385;29;20056;-71
2022/12/12 08:36:42;;;;;;;5.18;3.03;;;-3.60;99.90;;;;;;4914274;29;20663;-73
2022/12/12 08:39:14;;;;;;;7.25;3.65;;;-3.60;99.90;;;;;;4932773;29;20046;-77
2022/12/12 08:41:48;;;;;;;;;;;-3.60;99.90;;;;;;4957411;29;20070;-78
2022/12/12 08:44:18;;;;;;;4.15;2.88;;;-3.60;99.90;;;;;;4926174;29;19927;-76
2022/12/12 08:46:47;;;;;;;7.00;3.60;;;-3.60;99.90;;;;;;4921337;29;20048;-76
2022/12/12 08:49:15;;;;;;;6.38;2.90;;;-3.60;99.90;;;;;;4933247;29;20055;-79
2022/12/12 08:51:46;;;;;;;16.85;3.47;;;-3.60;99.90;;;;;;4935494;29;20051;-78
2022/12/12 08:54:14;;;;;;;6.40;4.03;;;-3.50;99.90;;;;;;4938077;29;20055;-75
2022/12/12 08:56:42;;;;;;;7.30;3.25;;;-3.50;99.90;;;;;;4930081;29;20079;-75
2022/12/12 08:59:12;;;;;;;6.85;3.67;;;-3.50;99.90;;;;;;4914483;29;20162;-74
2022/12/12 09:01:41;;;;;;;5.68;2.70;;;-3.60;99.90;;;;;;4928192;29;20055;-75
2022/12/12 09:04:09;;;;;;;8.50;3.17;;;-3.60;99.90;;;;;;4931623;29;20051;-76
2022/12/12 09:06:37;;;;;;;8.43;4.25;;;-3.50;99.90;;;;;;4928154;29;20136;-75
2022/12/12 09:09:05;;;;;;;6.00;3.50;;;-3.60;99.90;;;;;;4927043;29;20050;-76
2022/12/12 09:11:32;;;;;;;7.93;3.88;;;-3.60;99.90;;;;;;4926805;29;20056;-76
2022/12/12 09:14:03;;;;;;;6.53;3.78;;;-3.50;99.90;;;;;;4925379;29;20110;-71
2022/12/12 09:16:33;;;;;;;5.25;3.05;;;-3.50;99.90;;;;;;4932232;29;20059;-71
2022/12/12 09:19:00;;;;;;;6.93;3.45;;;-3.50;99.90;;;;;;4932377;29;20612;-70
2022/12/12 09:21:28;;;;;;;7.25;3.83;;;-3.50;99.90;;;;;;4935432;29;20103;-69
2022/12/12 09:23:55;;;;;;;7.18;3.63;;;-3.60;99.90;;;;;;4933433;29;20143;-70
2022/12/12 09:26:23;;;;;;;10.23;4.63;;;-3.60;99.90;;;;;;4943287;29;20047;-73
2022/12/12 09:28:50;;;;;;;7.63;3.25;;;-3.60;99.90;;;;;;4931896;29;20051;-71
2022/12/12 09:31:18;;;;;;;9.52;4.20;;;-3.60;99.90;;;;;;4932270;29;20531;-75
2022/12/12 09:33:48;;;;;;;7.70;4.53;;;-3.60;99.90;;;;;;4931515;29;20047;-74
2022/12/12 09:36:18;;;;;;;9.70;4.15;;;-3.60;99.90;;;;;;4931630;29;20107;-72
2022/12/12 09:38:46;;;;;;;10.40;4.50;;;-3.60;99.90;;;;;;4926958;29;20424;-68
2022/12/12 09:41:18;;;;;;;9.30;4.07;;;-3.60;99.90;;;;;;4912545;29;20159;-73
2022/12/12 09:43:54;;;;;;;10.75;4.68;;;-3.60;99.90;;;;;;4911862;29;20110;-69
2022/12/12 09:46:32;;;;;;;11.70;4.32;;;-3.60;99.90;;;;;;4929516;29;20051;-70
2022/12/12 09:49:12;;;;;;;11.40;4.00;;;-3.70;99.90;;;;;;4929771;29;20051;-69
2022/12/12 09:51:42;;;;;;;10.52;5.05;;;-3.70;99.90;;;;;;4925622;29;20223;-70
2022/12/12 09:54:15;;;;;;;15.80;4.55;;;-3.70;99.90;;;;;;4931570;29;20301;-74
2022/12/12 09:56:57;;;;;;;11.57;4.70;;;-3.70;99.90;;;;;;4949249;29;20043;-71
2022/12/12 09:59:35;;;;;;;6.30;3.83;;;-3.70;99.90;;;;;;4929280;29;20059;-70
2022/12/12 10:02:20;;;;;;;11.07;4.45;;;-3.70;99.90;;;;;;4928142;29;20048;-71
2022/12/12 10:05:00;;;;;;;8.60;3.97;;;-3.80;99.90;;;;;;4929251;29;20076;-73
2022/12/12 10:07:36;;;;;;;9.10;4.15;;;-3.80;99.90;;;;;;4946914;29;20055;-74
2022/12/12 10:10:15;;;;;;;8.15;4.07;;;-3.90;99.90;;;;;;4947705;29;20051;-74
2022/12/12 10:12:44;;;;;;;10.80;5.32;;;-3.90;99.90;;;;;;4948179;29;20039;-72
2022/12/12 10:15:25;;;;;;;15.40;5.03;;;-4.00;99.90;;;;;;4927362;29;20107;-72
2022/12/12 10:17:54;;;;;;;12.60;5.57;;;-4.00;99.90;;;;;;4927271;29;20059;-73
2022/12/12 10:20:30;;;;;;;9.77;4.03;;;-4.10;99.90;;;;;;4926525;29;20047;-72
2022/12/12 10:23:06;;;;;;;12.27;5.05;;;-4.00;99.90;;;;;;4926180;29;20071;-74
2022/12/12 10:25:41;;;;;;;15.00;5.45;;;-4.10;99.90;;;;;;4929035;29;20056;-74
2022/12/12 10:28:12;;;;;;;12.23;5.22;;;-4.10;99.90;;;;;;4928308;29;20052;-75
2022/12/12 10:31:00;;;;;;;6.68;3.72;;;-4.10;99.90;;;;;;4929757;29;20062;-72
2022/12/12 10:33:38;;;;;;;6.80;3.97;;;-4.10;99.90;;;;;;4912792;29;20562;-74
2022/12/12 10:36:24;;;;;;;12.75;4.55;;;-4.20;99.90;;;;;;4931254;29;20110;-75
2022/12/12 10:39:06;;;;;;;13.13;4.50;;;-4.20;99.90;;;;;;4911953;29;20059;-74
2022/12/12 10:41:43;;;;;;;12.57;5.60;;;-4.30;99.90;;;;;;4929636;29;20121;-73
2022/12/12 10:44:26;;;;;;;14.85;6.05;;;-4.40;99.90;;;;;;4948259;29;20464;-74
2022/12/12 10:47:00;;;;;;;10.30;5.32;;;-4.30;99.90;;;;;;4928689;29;20184;-74
2022/12/12 10:49:28;;;;;;;12.98;5.68;;;-4.40;99.90;;;;;;4929150;29;20055;-75
2022/12/12 10:52:00;;;;;;;6.25;3.38;;;-4.50;99.90;;;;;;4927615;29;21040;-75
2022/12/12 10:54:32;;;;;;;12.23;5.50;;;-4.50;99.90;;;;;;4929119;29;20497;-76
2022/12/12 10:57:14;;;;;;;12.05;5.20;;;-4.60;99.90;;;;;;4929182;29;20126;-75
2022/12/12 10:59:45;;;;;;;11.13;4.60;;;-4.60;99.90;;;;;;4912048;29;20576;-75
2022/12/12 11:02:29;;;;;;;13.05;5.72;;;-4.60;99.90;;;;;;4928997;29;20625;-75
2022/12/12 11:05:22;;;;;;;14.18;6.78;;;-4.60;99.90;;;;;;4911735;29;20055;-75
2022/12/12 11:08:01;;;;;;;12.60;6.47;;;-4.70;99.90;;;;;;4924868;29;20051;-71
2022/12/12 11:10:31;;;;;;;10.70;4.70;;;-4.70;99.90;;;;;;4928541;29;20052;-70
2022/12/12 11:13:02;;;;;;;9.20;4.43;;;-4.70;99.90;;;;;;4928788;29;20056;-72
2022/12/12 11:15:38;;;;;;;8.77;4.82;;;-4.70;99.90;;;;;;4929807;29;20392;-73
2022/12/12 11:18:07;;;;;;;15.30;5.72;;;-4.80;99.90;;;;;;4911276;29;20063;-71
2022/12/12 11:20:34;;;;;;;8.75;4.95;;;-4.80;99.90;;;;;;4912086;29;20044;-72
2022/12/12 11:23:03;;;;;;;11.27;5.00;;;-4.90;99.90;;;;;;4928356;29;20048;-70
2022/12/12 11:25:32;;;;;;;13.32;5.15;;;-4.90;99.90;;;;;;4929940;29;20424;-71
2022/12/12 11:28:04;;;;;;;10.25;5.07;;;-5.00;99.90;;;;;;4928628;29;20052;-71
2022/12/12 11:30:36;;;;;;;13.13;5.95;;;-5.00;99.90;;;;;;4928456;29;20521;-71
2022/12/12 11:33:07;;;;;;;12.37;5.67;;;-5.00;99.90;;;;;;4928658;29;20138;-72
2022/12/12 11:35:38;;;;;;;11.45;4.78;;;-5.00;99.90;;;;;;4928590;29;20052;-72
2022/12/12 11:38:17;;;;;;;12.98;6.22;;;-5.10;99.90;;;;;;4928477;29;20073;-70
2022/12/12 11:40:45;;;;;;;14.30;6.22;;;-5.10;99.90;;;;;;4928017;29;20044;-71
2022/12/12 11:43:27;;;;;;;15.38;6.22;;;-5.00;99.90;;;;;;4928520;29;20079;-74
2022/12/12 11:46:09;;;;;;;12.00;4.35;;;-5.10;99.90;;;;;;4928774;29;20056;-75
2022/12/12 11:49:00;;;;;;;11.32;5.65;;;-5.10;99.90;;;;;;4911828;29;20500;-75
2022/12/12 11:51:38;;;;;;;10.38;5.28;;;-5.10;99.90;;;;;;4911986;29;20058;-75
2022/12/12 11:54:13;;;;;;;13.52;5.57;;;-5.10;99.90;;;;;;4926383;29;20044;-74
2022/12/12 11:56:51;;;;;;;11.95;5.40;;;-5.10;99.90;;;;;;4928938;29;20539;-69
2022/12/12 11:59:48;;;;;;;8.68;3.95;;;-5.20;99.90;;;;;;4919902;29;20603;-71
2022/12/12 12:02:55;;;;;;;9.45;4.18;;;-5.20;99.90;;;;;;4928215;29;20543;-70
2022/12/12 12:05:39;;;;;;;9.32;4.70;;;-5.20;99.90;;;;;;4926764;29;20062;-71
2022/12/12 12:08:24;;;;;;;13.00;5.03;;;-5.20;99.90;;;;;;4927656;29;20425;-72
2022/12/12 12:11:10;;;;;;;9.15;5.25;;;-5.30;99.90;;;;;;4907734;29;20044;-71
2022/12/12 12:14:32;;;;;;;12.20;5.78;;;-5.30;99.90;;;;;;4938368;29;21817;-72
2022/12/12 12:17:10;;;;;;;8.15;3.50;;;-5.30;99.90;;;;;;4911108;29;20158;-71
2022/12/12 12:20:01;;;;;;;15.82;5.38;;;-5.30;99.90;;;;;;4927852;29;20062;-71
2022/12/12 12:22:51;;;;;;;8.90;4.40;;;-5.40;99.90;;;;;;4927861;29;20067;-72
2022/12/12 12:25:31;;;;;;;13.48;5.22;;;-5.40;99.90;;;;;;4928366;29;20078;-72
2022/12/12 12:28:37;;;;;;;8.27;3.78;;;-5.50;99.90;;;;;;4927646;29;20058;-73
2022/12/12 12:31:11;;;;;;;11.15;5.82;;;-5.50;99.90;;;;;;4927701;29;20056;-71
2022/12/12 12:33:53;;;;;;;12.93;5.47;;;-5.50;99.90;;;;;;4925189;29;20060;-71
2022/12/12 12:36:24;;;;;;;10.13;5.80;;;-5.50;99.90;;;;;;4924585;29;20612;-70
2022/12/12 12:39:04;;;;;;;10.00;4.55;;;-5.50;99.90;;;;;;4927623;29;20055;-70
2022/12/12 12:41:50;;;;;;;7.07;3.72;;;-5.50;99.90;;;;;;4927991;29;20791;-70
2022/12/12 12:44:39;;;;;;;7.50;4.05;;;-5.50;99.90;;;;;;4927665;29;20079;-71
2022/12/12 12:47:23;;;;;;;6.30;3.10;;;-5.50;99.90;;;;;;4928400;29;20052;-71
2022/12/12 12:49:56;;;;;;;7.13;4.53;;;-5.50;99.90;;;;;;4928169;29;20048;-68
2022/12/12 12:52:31;;;;;;;13.05;5.53;;;-5.60;99.90;;;;;;4911280;29;20409;-73
2022/12/12 12:55:02;;;;;;;13.10;3.75;;;-5.60;99.90;;;;;;4910768;29;20055;-78
2022/12/12 12:57:34;;;;;;;10.70;4.15;;;-5.60;99.90;;;;;;4903312;29;20813;-74
2022/12/12 13:00:08;;;;;;;10.10;4.15;;;-5.60;99.90;;;;;;4936954;29;20146;-69
2022/12/12 13:02:46;;;;;;;8.52;3.83;;;-5.60;99.90;;;;;;4927412;29;20043;-73
2022/12/12 13:05:23;;;;;;;8.68;4.90;;;-5.60;99.90;;;;;;4929320;29;20051;-70
2022/12/12 13:08:02;;;;;;;9.57;4.82;;;-5.60;99.90;;;;;;4927606;29;20137;-69
2022/12/12 13:10:33;;;;;;;7.80;4.25;;;-5.60;99.90;;;;;;4927295;29;20064;-71
2022/12/12 13:13:07;;;;;;;11.57;4.80;;;-5.60;99.90;;;;;;4927309;29;20515;-70
2022/12/12 13:15:40;;;;;;;10.63;4.40;;;-5.60;99.90;;;;;;4930747;29;20461;-70
2022/12/12 13:18:17;;;;;;;7.88;4.05;;;-5.60;99.90;;;;;;4927256;29;20052;-70
2022/12/12 13:20:57;;;;;;;9.25;5.07;;;-5.60;99.90;;;;;;4935053;29;20068;-71
2022/12/12 13:23:46;;;;;;;9.32;4.32;;;-5.60;99.90;;;;;;4930926;29;20051;-71
2022/12/12 13:26:22;;;;;;;9.48;4.13;;;-5.60;99.90;;;;;;4930653;29;20055;-70
2022/12/12 13:28:57;;;;;;;11.57;4.38;;;-5.60;99.90;;;;;;4930518;29;20055;-72
2022/12/12 13:31:52;;;;;;;11.65;6.03;;;-5.60;99.90;;;;;;4929182;29;20139;-72
2022/12/12 13:34:25;;;;;;;10.73;3.88;;;-5.70;99.90;;;;;;4928835;29;20062;-72